Svitzer Maitland — VHDK — position and weather

sailwx.info

Track history (hours):
 
Tides and Currents Weather Stations Pressure Air Temp Water Temp Dewpoint Dewpoint Depression Visibility Wind Speed Wind Dir Waves Ship Positions

Svitzer Maitland

Last reported at 2018-Feb-01 05:41 UTC. Time now 2018-Feb-25 20:01 UTC.
Position S 32°55' E 151°46'.
Warning: this ship's position is 24 days out of date.

Length 30 m; draft 4.5 m.

Type: Tug. MMSI: 503624000.

Date/timePositionNaut miles runAvg speedWind from/ knotsBaromVisibWave heightAir tempDewpointWater temp
2018-Feb-01 05:41S 32°55' E 151°46'1 4.7
2018-Feb-01 05:26S 32°54' E 151°46'1 1.5
2018-Feb-01 04:54S 32°53' E 151°46'2 3.8
2018-Feb-01 04:28S 32°55' E 151°47'0 0.4
2018-Feb-01 03:58S 32°55' E 151°46'0 0.2
2018-Feb-01 02:53S 32°55' E 151°47'1 1.0
2018-Feb-01 01:52S 32°54' E 151°46'1 1.4
2018-Feb-01 01:27S 32°54' E 151°46'2 4.0
2018-Feb-01 00:59S 32°55' E 151°47'0 0.5
2018-Feb-01 00:15S 32°55' E 151°46'0 0.0
2018-Feb-01 00:00S 32°55' E 151°46'2 1.4
2018-Jan-31 22:50S 32°54' E 151°46'0 0.6
2018-Jan-31 22:20S 32°53' E 151°46'2 0.1
2018-Jan-31 06:47S 32°55' E 151°46'0 1.0
2018-Jan-31 06:19S 32°55' E 151°47'1 3.3
2018-Jan-31 05:58S 32°54' E 151°46'0 0.6
2018-Jan-31 05:12S 32°53' E 151°46'0 0.7
2018-Jan-31 04:39S 32°54' E 151°46'1 6.1
2018-Jan-31 04:25S 32°55' E 151°47'1 1.2
2018-Jan-31 03:49S 32°55' E 151°46'0 0.7
2018-Jan-31 03:28S 32°54' E 151°46'1 0.3
2018-Jan-30 23:57S 32°55' E 151°46'0 0.8
2018-Jan-30 23:30S 32°55' E 151°47'0 0.0
2018-Jan-30 15:52S 32°55' E 151°46'1 1.0
2018-Jan-30 15:22S 32°55' E 151°46'1 3.2
2018-Jan-30 14:56S 32°54' E 151°46'0 0.1
2018-Jan-30 14:30S 32°54' E 151°46'2 1.6
2018-Jan-30 13:30S 32°55' E 151°47'1 2.8
2018-Jan-30 12:59S 32°55' E 151°48'2 3.5
2018-Jan-30 12:30S 32°55' E 151°46'0 0.1
2018-Jan-30 11:16S 32°55' E 151°46'2 2.3
2018-Jan-30 10:28S 32°53' E 151°46'2 0.9
2018-Jan-30 08:32S 32°55' E 151°46'0 0.0
2018-Jan-30 06:36S 32°55' E 151°46'0 3.3
2018-Jan-30 06:30S 32°55' E 151°47'0 0.9
2018-Jan-30 06:00S 32°55' E 151°46'0 0.2
2018-Jan-30 05:30S 32°55' E 151°47'0 0.5
2018-Jan-30 05:00S 32°55' E 151°46'0 0.0
2018-Jan-30 04:30S 32°55' E 151°46'0 0.0
2018-Jan-30 04:00S 32°55' E 151°46'0 0.0
2018-Jan-30 03:30S 32°55' E 151°46'0 0.0
2018-Jan-30 03:00S 32°55' E 151°46'2 3.6
2018-Jan-30 02:30S 32°54' E 151°46'1 1.5
2018-Jan-30 02:00S 32°54' E 151°46'2 5.0
2018-Jan-30 01:30S 32°55' E 151°49'3 0.6
2018-Jan-29 20:57S 32°55' E 151°46'0 0.0
2018-Jan-29 20:19S 32°55' E 151°46'0 0.0
2018-Jan-29 20:00S 32°55' E 151°46'1 0.9
2018-Jan-29 19:27S 32°55' E 151°46'1 2.6
2018-Jan-29 18:58S 32°54' E 151°46'2 4.3
2018-Jan-29 18:30S 32°55' E 151°47'0 0.8
2018-Jan-29 17:58S 32°55' E 151°47'2 1.6
2018-Jan-29 16:37S 32°53' E 151°46'0 1.3
2018-Jan-29 16:30S 32°53' E 151°46'0 0.0
2018-Jan-29 16:00S 32°53' E 151°46'1 1.8
2018-Jan-29 15:14S 32°55' E 151°46'1 2.9
2018-Jan-29 15:00S 32°54' E 151°46'1 2.2
2018-Jan-29 14:27S 32°55' E 151°47'0 0.8
2018-Jan-29 13:55S 32°55' E 151°46'0 0.0
2018-Jan-29 13:30S 32°55' E 151°46'0 0.1
2018-Jan-29 12:43S 32°55' E 151°46'0 0.0
2018-Jan-29 09:57S 32°55' E 151°46'1 1.1
2018-Jan-29 09:26S 32°55' E 151°46'1 3.1
2018-Jan-29 08:59S 32°53' E 151°46'2 4.0
2018-Jan-29 08:28S 32°55' E 151°47'0 0.3
2018-Jan-29 07:22S 32°55' E 151°46'1 3.8
2018-Jan-29 07:00S 32°55' E 151°48'2 1.5
2018-Jan-29 05:25S 32°53' E 151°46'2 4.6
2018-Jan-29 05:00S 32°55' E 151°46'0 0.0
2018-Jan-29 04:29S 32°55' E 151°46'0 0.0
2018-Jan-29 03:58S 32°55' E 151°46'0 0.0
2018-Jan-29 03:28S 32°55' E 151°46'0 0.0
2018-Jan-29 03:00S 32°55' E 151°46'0 0.0
2018-Jan-29 02:29S 32°55' E 151°46'0 0.0
2018-Jan-29 02:00S 32°55' E 151°46'0 0.0
2018-Jan-29 01:28S 32°55' E 151°46'0 0.0
2018-Jan-29 00:55S 32°55' E 151°46'0 0.0
2018-Jan-29 00:29S 32°55' E 151°46'0 0.0
2018-Jan-28 23:52S 32°55' E 151°46'0 0.0
2018-Jan-28 23:24S 32°55' E 151°46'0 0.3
2018-Jan-28 23:00S 32°55' E 151°46'0 0.1
2018-Jan-28 21:09S 32°55' E 151°46'0 0.0
2018-Jan-28 20:42S 32°55' E 151°46'0 0.1
2018-Jan-28 20:12S 32°55' E 151°46'1 5.0
2018-Jan-28 19:59S 32°55' E 151°48'3 1.7
2018-Jan-28 18:17S 32°53' E 151°45'1 2.2
2018-Jan-28 17:58S 32°53' E 151°46'2 4.0
2018-Jan-28 17:30S 32°55' E 151°46'0 0.0
2018-Jan-28 17:00S 32°55' E 151°46'0 0.0
2018-Jan-28 16:23S 32°55' E 151°46'0 0.0
2018-Jan-28 15:54S 32°55' E 151°46'0 0.0
2018-Jan-28 15:23S 32°55' E 151°46'0 0.0
2018-Jan-28 14:48S 32°55' E 151°46'0 0.0
2018-Jan-28 14:16S 32°55' E 151°46'0 0.0
2018-Jan-28 13:55S 32°55' E 151°46'0 0.0
2018-Jan-28 13:30S 32°55' E 151°46'0 0.0
2018-Jan-28 12:56S 32°55' E 151°46'1 1.1
2018-Jan-28 11:53S 32°54' E 151°46'2 3.4
2018-Jan-28 11:25S 32°55' E 151°48'1 0.7
2018-Jan-28 10:16S 32°55' E 151°47'1 1.3
2018-Jan-28 09:40S 32°55' E 151°46'1 5.5
2018-Jan-28 09:28S 32°54' E 151°46'0 0.8
2018-Jan-28 09:00S 32°54' E 151°46'0 0.2
2018-Jan-28 08:20S 32°54' E 151°46'2 5.9
2018-Jan-28 08:00S 32°55' E 151°48'2 3.3
2018-Jan-28 07:30S 32°54' E 151°46'1 2.1
2018-Jan-28 06:53S 32°55' E 151°47'0 0.7
2018-Jan-28 06:29S 32°55' E 151°46'0 0.0
2018-Jan-28 05:58S 32°55' E 151°46'0 0.0
2018-Jan-28 05:27S 32°55' E 151°46'0 0.0
2018-Jan-28 04:57S 32°55' E 151°46'0 0.0
2018-Jan-28 04:29S 32°55' E 151°46'0 0.0
2018-Jan-28 04:00S 32°55' E 151°46'0 0.0
2018-Jan-28 03:30S 32°55' E 151°46'0 0.0
2018-Jan-28 03:00S 32°55' E 151°46'0 0.0
2018-Jan-28 02:30S 32°55' E 151°46'0 0.0
2018-Jan-28 01:53S 32°55' E 151°46'0 0.0
2018-Jan-28 01:27S 32°55' E 151°46'2 1.0
2018-Jan-27 23:37S 32°53' E 151°46'0 2.6
2018-Jan-27 23:30S 32°54' E 151°46'2 3.9
2018-Jan-27 23:00S 32°55' E 151°48'2 1.7
2018-Jan-27 22:03S 32°55' E 151°46'0 3.5
2018-Jan-27 22:00S 32°55' E 151°46'2 2.0
2018-Jan-27 21:01S 32°53' E 151°46'0 2.2
2018-Jan-27 21:00S 32°53' E 151°46'2 4.1
2018-Jan-27 20:28S 32°55' E 151°48'1 0.8
2018-Jan-27 18:46S 32°55' E 151°46'0 1.1
2018-Jan-27 18:19S 32°55' E 151°46'2 1.6
2018-Jan-27 17:07S 32°53' E 151°45'1 6.6
2018-Jan-27 16:59S 32°54' E 151°46'1 0.2
2018-Jan-27 10:05S 32°55' E 151°47'1 6.0
2018-Jan-27 09:52S 32°55' E 151°48'1 0.3
2018-Jan-27 04:15S 32°55' E 151°46'1 4.0
2018-Jan-27 03:58S 32°54' E 151°46'0 0.8
2018-Jan-27 03:24S 32°54' E 151°46'2 4.3
2018-Jan-27 03:00S 32°55' E 151°47'2 2.7
2018-Jan-27 02:24S 32°54' E 151°48'1 1.5
2018-Jan-27 02:00S 32°55' E 151°48'2 3.4
2018-Jan-27 01:30S 32°54' E 151°46'1 0.4
2018-Jan-26 23:30S 32°54' E 151°46'2 3.8
2018-Jan-26 22:57S 32°55' E 151°48'2 3.9
2018-Jan-26 22:30S 32°55' E 151°46'2 0.8
2018-Jan-26 20:20S 32°54' E 151°46'1 4.2
2018-Jan-26 20:00S 32°55' E 151°47'2 3.6
2018-Jan-26 19:30S 32°54' E 151°49'2 0.4
2018-Jan-26 14:31S 32°55' E 151°46'0 8.5
2018-Jan-26 14:30S 32°55' E 151°46'2 2.9
2018-Jan-26 13:58S 32°54' E 151°46'2 2.6
2018-Jan-26 13:16S 32°55' E 151°48'1 1.1
2018-Jan-26 11:57S 32°55' E 151°46'1 1.5
2018-Jan-26 11:30S 32°54' E 151°46'1 0.4
2018-Jan-26 09:39S 32°53' E 151°46'2 3.3
2018-Jan-26 09:02S 32°55' E 151°47'1 7.8
2018-Jan-26 08:56S 32°55' E 151°48'2 1.3
2018-Jan-26 07:28S 32°54' E 151°46'2 3.8
2018-Jan-26 06:57S 32°55' E 151°48'1 3.2
2018-Jan-26 06:30S 32°55' E 151°47'0 0.4
2018-Jan-26 05:56S 32°55' E 151°46'0 0.8
2018-Jan-26 05:30S 32°55' E 151°47'2 1.5
2018-Jan-26 04:10S 32°53' E 151°46'1 7.8
2018-Jan-26 03:59S 32°55' E 151°46'1 0.1
2018-Jan-25 16:23S 32°55' E 151°46'1 1.2
2018-Jan-25 15:58S 32°55' E 151°46'1 1.2
2018-Jan-25 15:28S 32°54' E 151°46'0 0.3
2018-Jan-25 13:59S 32°54' E 151°46'0 0.2
2018-Jan-25 12:57S 32°54' E 151°46'1 0.8
2018-Jan-25 11:54S 32°55' E 151°46'1 2.4
2018-Jan-25 11:21S 32°54' E 151°46'1 0.2
2018-Jan-25 08:59S 32°54' E 151°46'2 3.6
2018-Jan-25 08:30S 32°55' E 151°48'0 0.3
2018-Jan-25 07:58S 32°55' E 151°48'1 2.9
2018-Jan-25 07:30S 32°55' E 151°46'1 1.4
2018-Jan-25 06:30S 32°53' E 151°46'2 4.1
2018-Jan-25 06:00S 32°55' E 151°47'2 2.3
2018-Jan-25 05:07S 32°53' E 151°46'0 2.7
2018-Jan-25 04:59S 32°54' E 151°46'2 3.8
2018-Jan-25 04:29S 32°55' E 151°48'1 1.8
2018-Jan-25 03:56S 32°55' E 151°47'3 2.0
2018-Jan-25 02:42S 32°53' E 151°45'2 6.4
2018-Jan-25 02:26S 32°55' E 151°46'1 1.0
2018-Jan-25 01:51S 32°55' E 151°46'2 0.2
2018-Jan-24 17:56S 32°53' E 151°46'0 0.2
2018-Jan-24 17:29S 32°54' E 151°46'1 1.5
2018-Jan-24 16:59S 32°54' E 151°46'1 1.5
2018-Jan-24 16:30S 32°54' E 151°46'2 3.7
2018-Jan-24 15:59S 32°55' E 151°48'1 1.7
2018-Jan-24 15:11S 32°55' E 151°46'0 0.0
2018-Jan-24 14:54S 32°55' E 151°46'1 2.0
2018-Jan-24 14:18S 32°54' E 151°46'0 0.0
2018-Jan-24 13:57S 32°54' E 151°46'1 0.4
2018-Jan-24 12:43S 32°54' E 151°46'1 2.6
2018-Jan-24 12:26S 32°53' E 151°46'0 0.3
2018-Jan-24 11:55S 32°53' E 151°46'0 0.1
2018-Jan-24 08:49S 32°54' E 151°46'0 0.3
2018-Jan-24 08:10S 32°54' E 151°46'1 4.8
2018-Jan-24 07:51S 32°55' E 151°47'0 0.8
2018-Jan-24 07:18S 32°55' E 151°47'1 1.4
2018-Jan-24 06:53S 32°55' E 151°46'0 0.0
2018-Jan-24 06:23S 32°55' E 151°46'0 0.0
2018-Jan-24 05:50S 32°55' E 151°46'0 0.0
2018-Jan-24 04:12S 32°55' E 151°46'1 7.6
2018-Jan-24 04:00S 32°55' E 151°48'1 2.1
2018-Jan-24 03:24S 32°55' E 151°46'2 1.9
2018-Jan-24 02:24S 32°53' E 151°46'0 0.3
2018-Jan-24 00:47S 32°53' E 151°46'1 2.7
2018-Jan-24 00:29S 32°54' E 151°46'2 4.7
2018-Jan-23 23:58S 32°54' E 151°49'2 4.2
2018-Jan-23 23:27S 32°55' E 151°47'2 3.5
2018-Jan-23 22:53S 32°53' E 151°46'0 0.5
2018-Jan-23 22:15S 32°53' E 151°46'0 0.0
2018-Jan-23 21:48S 32°53' E 151°46'0 0.0
2018-Jan-23 21:20S 32°53' E 151°46'0 0.0
2018-Jan-23 21:00S 32°53' E 151°46'1 0.6
2018-Jan-23 19:57S 32°54' E 151°46'2 4.2
2018-Jan-23 19:29S 32°55' E 151°49'2 1.2
2018-Jan-23 17:50S 32°55' E 151°46'0 0.8
2018-Jan-23 17:18S 32°55' E 151°46'1 4.3
2018-Jan-23 17:00S 32°54' E 151°46'0 0.4
2018-Jan-23 16:30S 32°53' E 151°46'0 0.9
2018-Jan-23 15:58S 32°54' E 151°46'0 0.0
2018-Jan-23 15:30S 32°54' E 151°46'0 0.0
2018-Jan-23 15:00S 32°54' E 151°46'0 0.0
2018-Jan-23 14:30S 32°54' E 151°46'0 0.0
2018-Jan-23 14:00S 32°54' E 151°46'0 0.0
2018-Jan-23 13:30S 32°54' E 151°46'0 0.0
2018-Jan-23 13:00S 32°54' E 151°46'0 0.0
2018-Jan-23 12:30S 32°54' E 151°46'0 0.2
2018-Jan-23 11:34S 32°54' E 151°46'0 3.8
2018-Jan-23 11:30S 32°54' E 151°46'2 4.0
2018-Jan-23 11:00S 32°55' E 151°49'2 1.2
2018-Jan-23 09:19S 32°55' E 151°46'1 1.0
2018-Jan-23 08:48S 32°55' E 151°46'2 1.7
2018-Jan-23 07:53S 32°53' E 151°46'2 5.6
2018-Jan-23 07:29S 32°55' E 151°47'0 0.2
2018-Jan-23 06:30S 32°55' E 151°46'0 0.0
2018-Jan-23 05:50S 32°55' E 151°46'0 0.1
2018-Jan-23 05:23S 32°55' E 151°46'0 1.0
2018-Jan-23 05:01S 32°55' E 151°47'2 3.8
2018-Jan-23 04:29S 32°53' E 151°46'2 4.6
2018-Jan-23 04:01S 32°55' E 151°46'0 0.4
2018-Jan-23 03:30S 32°55' E 151°46'0 0.0
2018-Jan-23 03:00S 32°55' E 151°46'0 0.0
2018-Jan-23 02:30S 32°55' E 151°46'0 0.7
2018-Jan-23 02:00S 32°55' E 151°47'1 1.6
2018-Jan-23 01:27S 32°55' E 151°46'1 2.7
2018-Jan-23 00:54S 32°53' E 151°46'0 0.7
2018-Jan-23 00:30S 32°53' E 151°45'1 0.6
2018-Jan-22 23:07S 32°53' E 151°46'0 0.3
2018-Jan-22 22:56S 32°53' E 151°46'2 3.8
2018-Jan-22 22:27S 32°55' E 151°47'1 2.6
2018-Jan-22 21:54S 32°55' E 151°48'2 3.4
2018-Jan-22 21:27S 32°55' E 151°46'1 2.2
2018-Jan-22 20:56S 32°53' E 151°46'0 0.2
2018-Jan-22 19:47S 32°53' E 151°46'2 3.2
2018-Jan-22 19:14S 32°55' E 151°47'1 5.7
2018-Jan-22 19:00S 32°55' E 151°48'2 0.3
2018-Jan-22 14:04S 32°55' E 151°46'0 0.0
2018-Jan-22 13:57S 32°55' E 151°46'0 0.6
2018-Jan-22 13:29S 32°55' E 151°47'2 1.9
2018-Jan-22 12:25S 32°53' E 151°46'1 0.3
2018-Jan-22 10:34S 32°54' E 151°46'0 2.2
2018-Jan-22 10:21S 32°54' E 151°46'0 0.2
2018-Jan-22 10:00S 32°54' E 151°46'1 1.3
2018-Jan-22 09:29S 32°54' E 151°46'2 3.8
2018-Jan-22 09:00S 32°55' E 151°48'1 0.8
2018-Jan-22 08:23S 32°55' E 151°47'0 0.3
2018-Jan-22 08:00S 32°55' E 151°47'1 1.3
2018-Jan-22 07:25S 32°55' E 151°46'1 2.0
2018-Jan-22 07:00S 32°54' E 151°46'1 2.5
2018-Jan-22 06:30S 32°55' E 151°46'0 0.3
2018-Jan-22 06:00S 32°55' E 151°46'  
Track history (hours):
 
Tides and Currents Weather Stations Pressure Air Temp Water Temp Dewpoint Dewpoint Depression Visibility Wind Speed Wind Dir Waves Ship Positions

Svitzer Maitland

Last reported at 2018-Feb-01 05:41 UTC. Time now 2018-Feb-25 20:01 UTC.
Position S 32°55' E 151°46'.
Warning: this ship's position is 24 days out of date.

Length 30 m; draft 4.5 m.

Type: Tug. MMSI: 503624000.

Date/timePositionNaut miles runAvg speedWind from/ knotsBaromVisibWave heightAir tempDewpointWater temp
2018-Feb-01 05:41S 32°55' E 151°46'1 4.7
2018-Feb-01 05:26S 32°54' E 151°46'1 1.5
2018-Feb-01 04:54S 32°53' E 151°46'2 3.8
2018-Feb-01 04:28S 32°55' E 151°47'0 0.4
2018-Feb-01 03:58S 32°55' E 151°46'0 0.2
2018-Feb-01 02:53S 32°55' E 151°47'1 1.0
2018-Feb-01 01:52S 32°54' E 151°46'1 1.4
2018-Feb-01 01:27S 32°54' E 151°46'2 4.0
2018-Feb-01 00:59S 32°55' E 151°47'0 0.5
2018-Feb-01 00:15S 32°55' E 151°46'0 0.0
2018-Feb-01 00:00S 32°55' E 151°46'2 1.4
2018-Jan-31 22:50S 32°54' E 151°46'0 0.6
2018-Jan-31 22:20S 32°53' E 151°46'2 0.1
2018-Jan-31 06:47S 32°55' E 151°46'0 1.0
2018-Jan-31 06:19S 32°55' E 151°47'1 3.3
2018-Jan-31 05:58S 32°54' E 151°46'0 0.6
2018-Jan-31 05:12S 32°53' E 151°46'0 0.7
2018-Jan-31 04:39S 32°54' E 151°46'1 6.1
2018-Jan-31 04:25S 32°55' E 151°47'1 1.2
2018-Jan-31 03:49S 32°55' E 151°46'0 0.7
2018-Jan-31 03:28S 32°54' E 151°46'1 0.3
2018-Jan-30 23:57S 32°55' E 151°46'0 0.8
2018-Jan-30 23:30S 32°55' E 151°47'0 0.0
2018-Jan-30 15:52S 32°55' E 151°46'1 1.0
2018-Jan-30 15:22S 32°55' E 151°46'1 3.2
2018-Jan-30 14:56S 32°54' E 151°46'0 0.1
2018-Jan-30 14:30S 32°54' E 151°46'2 1.6
2018-Jan-30 13:30S 32°55' E 151°47'1 2.8
2018-Jan-30 12:59S 32°55' E 151°48'2 3.5
2018-Jan-30 12:30S 32°55' E 151°46'0 0.1
2018-Jan-30 11:16S 32°55' E 151°46'2 2.3
2018-Jan-30 10:28S 32°53' E 151°46'2 0.9
2018-Jan-30 08:32S 32°55' E 151°46'0 0.0
2018-Jan-30 06:36S 32°55' E 151°46'0 3.3
2018-Jan-30 06:30S 32°55' E 151°47'0 0.9
2018-Jan-30 06:00S 32°55' E 151°46'0 0.2
2018-Jan-30 05:30S 32°55' E 151°47'0 0.5
2018-Jan-30 05:00S 32°55' E 151°46'0 0.0
2018-Jan-30 04:30S 32°55' E 151°46'0 0.0
2018-Jan-30 04:00S 32°55' E 151°46'0 0.0
2018-Jan-30 03:30S 32°55' E 151°46'0 0.0
2018-Jan-30 03:00S 32°55' E 151°46'2 3.6
2018-Jan-30 02:30S 32°54' E 151°46'1 1.5
2018-Jan-30 02:00S 32°54' E 151°46'2 5.0
2018-Jan-30 01:30S 32°55' E 151°49'3 0.6
2018-Jan-29 20:57S 32°55' E 151°46'0 0.0
2018-Jan-29 20:19S 32°55' E 151°46'0 0.0
2018-Jan-29 20:00S 32°55' E 151°46'1 0.9
2018-Jan-29 19:27S 32°55' E 151°46'1 2.6
2018-Jan-29 18:58S 32°54' E 151°46'2 4.3
2018-Jan-29 18:30S 32°55' E 151°47'0 0.8
2018-Jan-29 17:58S 32°55' E 151°47'2 1.6
2018-Jan-29 16:37S 32°53' E 151°46'0 1.3
2018-Jan-29 16:30S 32°53' E 151°46'0 0.0
2018-Jan-29 16:00S 32°53' E 151°46'1 1.8
2018-Jan-29 15:14S 32°55' E 151°46'1 2.9
2018-Jan-29 15:00S 32°54' E 151°46'1 2.2
2018-Jan-29 14:27S 32°55' E 151°47'0 0.8
2018-Jan-29 13:55S 32°55' E 151°46'0 0.0
2018-Jan-29 13:30S 32°55' E 151°46'0 0.1
2018-Jan-29 12:43S 32°55' E 151°46'0 0.0
2018-Jan-29 09:57S 32°55' E 151°46'1 1.1
2018-Jan-29 09:26S 32°55' E 151°46'1 3.1
2018-Jan-29 08:59S 32°53' E 151°46'2 4.0
2018-Jan-29 08:28S 32°55' E 151°47'0 0.3
2018-Jan-29 07:22S 32°55' E 151°46'1 3.8
2018-Jan-29 07:00S 32°55' E 151°48'2 1.5
2018-Jan-29 05:25S 32°53' E 151°46'2 4.6
2018-Jan-29 05:00S 32°55' E 151°46'0 0.0
2018-Jan-29 04:29S 32°55' E 151°46'0 0.0
2018-Jan-29 03:58S 32°55' E 151°46'0 0.0
2018-Jan-29 03:28S 32°55' E 151°46'0 0.0
2018-Jan-29 03:00S 32°55' E 151°46'0 0.0
2018-Jan-29 02:29S 32°55' E 151°46'0 0.0
2018-Jan-29 02:00S 32°55' E 151°46'0 0.0
2018-Jan-29 01:28S 32°55' E 151°46'0 0.0
2018-Jan-29 00:55S 32°55' E 151°46'0 0.0
2018-Jan-29 00:29S 32°55' E 151°46'0 0.0
2018-Jan-28 23:52S 32°55' E 151°46'0 0.0
2018-Jan-28 23:24S 32°55' E 151°46'0 0.3
2018-Jan-28 23:00S 32°55' E 151°46'0 0.1
2018-Jan-28 21:09S 32°55' E 151°46'0 0.0
2018-Jan-28 20:42S 32°55' E 151°46'0 0.1
2018-Jan-28 20:12S 32°55' E 151°46'1 5.0
2018-Jan-28 19:59S 32°55' E 151°48'3 1.7
2018-Jan-28 18:17S 32°53' E 151°45'1 2.2
2018-Jan-28 17:58S 32°53' E 151°46'2 4.0
2018-Jan-28 17:30S 32°55' E 151°46'0 0.0
2018-Jan-28 17:00S 32°55' E 151°46'0 0.0
2018-Jan-28 16:23S 32°55' E 151°46'0 0.0
2018-Jan-28 15:54S 32°55' E 151°46'0 0.0
2018-Jan-28 15:23S 32°55' E 151°46'0 0.0
2018-Jan-28 14:48S 32°55' E 151°46'0 0.0
2018-Jan-28 14:16S 32°55' E 151°46'0 0.0
2018-Jan-28 13:55S 32°55' E 151°46'0 0.0
2018-Jan-28 13:30S 32°55' E 151°46'0 0.0
2018-Jan-28 12:56S 32°55' E 151°46'1 1.1
2018-Jan-28 11:53S 32°54' E 151°46'2 3.4
2018-Jan-28 11:25S 32°55' E 151°48'1 0.7
2018-Jan-28 10:16S 32°55' E 151°47'1 1.3
2018-Jan-28 09:40S 32°55' E 151°46'1 5.5
2018-Jan-28 09:28S 32°54' E 151°46'0 0.8
2018-Jan-28 09:00S 32°54' E 151°46'0 0.2
2018-Jan-28 08:20S 32°54' E 151°46'2 5.9
2018-Jan-28 08:00S 32°55' E 151°48'2 3.3
2018-Jan-28 07:30S 32°54' E 151°46'1 2.1
2018-Jan-28 06:53S 32°55' E 151°47'0 0.7
2018-Jan-28 06:29S 32°55' E 151°46'0 0.0
2018-Jan-28 05:58S 32°55' E 151°46'0 0.0
2018-Jan-28 05:27S 32°55' E 151°46'0 0.0
2018-Jan-28 04:57S 32°55' E 151°46'0 0.0
2018-Jan-28 04:29S 32°55' E 151°46'0 0.0
2018-Jan-28 04:00S 32°55' E 151°46'0 0.0
2018-Jan-28 03:30S 32°55' E 151°46'0 0.0
2018-Jan-28 03:00S 32°55' E 151°46'0 0.0
2018-Jan-28 02:30S 32°55' E 151°46'0 0.0
2018-Jan-28 01:53S 32°55' E 151°46'0 0.0
2018-Jan-28 01:27S 32°55' E 151°46'2 1.0
2018-Jan-27 23:37S 32°53' E 151°46'0 2.6
2018-Jan-27 23:30S 32°54' E 151°46'2 3.9
2018-Jan-27 23:00S 32°55' E 151°48'2 1.7
2018-Jan-27 22:03S 32°55' E 151°46'0 3.5
2018-Jan-27 22:00S 32°55' E 151°46'2 2.0
2018-Jan-27 21:01S 32°53' E 151°46'0 2.2
2018-Jan-27 21:00S 32°53' E 151°46'2 4.1
2018-Jan-27 20:28S 32°55' E 151°48'1 0.8
2018-Jan-27 18:46S 32°55' E 151°46'0 1.1
2018-Jan-27 18:19S 32°55' E 151°46'2 1.6
2018-Jan-27 17:07S 32°53' E 151°45'1 6.6
2018-Jan-27 16:59S 32°54' E 151°46'1 0.2
2018-Jan-27 10:05S 32°55' E 151°47'1 6.0
2018-Jan-27 09:52S 32°55' E 151°48'1 0.3
2018-Jan-27 04:15S 32°55' E 151°46'1 4.0
2018-Jan-27 03:58S 32°54' E 151°46'0 0.8
2018-Jan-27 03:24S 32°54' E 151°46'2 4.3
2018-Jan-27 03:00S 32°55' E 151°47'2 2.7
2018-Jan-27 02:24S 32°54' E 151°48'1 1.5
2018-Jan-27 02:00S 32°55' E 151°48'2 3.4
2018-Jan-27 01:30S 32°54' E 151°46'1 0.4
2018-Jan-26 23:30S 32°54' E 151°46'2 3.8
2018-Jan-26 22:57S 32°55' E 151°48'2 3.9
2018-Jan-26 22:30S 32°55' E 151°46'2 0.8
2018-Jan-26 20:20S 32°54' E 151°46'1 4.2
2018-Jan-26 20:00S 32°55' E 151°47'2 3.6
2018-Jan-26 19:30S 32°54' E 151°49'2 0.4
2018-Jan-26 14:31S 32°55' E 151°46'0 8.5
2018-Jan-26 14:30S 32°55' E 151°46'2 2.9
2018-Jan-26 13:58S 32°54' E 151°46'2 2.6
2018-Jan-26 13:16S 32°55' E 151°48'1 1.1
2018-Jan-26 11:57S 32°55' E 151°46'1 1.5
2018-Jan-26 11:30S 32°54' E 151°46'1 0.4
2018-Jan-26 09:39S 32°53' E 151°46'2 3.3
2018-Jan-26 09:02S 32°55' E 151°47'1 7.8
2018-Jan-26 08:56S 32°55' E 151°48'2 1.3
2018-Jan-26 07:28S 32°54' E 151°46'2 3.8
2018-Jan-26 06:57S 32°55' E 151°48'1 3.2
2018-Jan-26 06:30S 32°55' E 151°47'0 0.4
2018-Jan-26 05:56S 32°55' E 151°46'0 0.8
2018-Jan-26 05:30S 32°55' E 151°47'2 1.5
2018-Jan-26 04:10S 32°53' E 151°46'1 7.8
2018-Jan-26 03:59S 32°55' E 151°46'1 0.1
2018-Jan-25 16:23S 32°55' E 151°46'1 1.2
2018-Jan-25 15:58S 32°55' E 151°46'1 1.2
2018-Jan-25 15:28S 32°54' E 151°46'0 0.3
2018-Jan-25 13:59S 32°54' E 151°46'0 0.2
2018-Jan-25 12:57S 32°54' E 151°46'1 0.8
2018-Jan-25 11:54S 32°55' E 151°46'1 2.4
2018-Jan-25 11:21S 32°54' E 151°46'1 0.2
2018-Jan-25 08:59S 32°54' E 151°46'2 3.6
2018-Jan-25 08:30S 32°55' E 151°48'0 0.3
2018-Jan-25 07:58S 32°55' E 151°48'1 2.9
2018-Jan-25 07:30S 32°55' E 151°46'1 1.4
2018-Jan-25 06:30S 32°53' E 151°46'2 4.1
2018-Jan-25 06:00S 32°55' E 151°47'2 2.3
2018-Jan-25 05:07S 32°53' E 151°46'0 2.7
2018-Jan-25 04:59S 32°54' E 151°46'2 3.8
2018-Jan-25 04:29S 32°55' E 151°48'1 1.8
2018-Jan-25 03:56S 32°55' E 151°47'3 2.0
2018-Jan-25 02:42S 32°53' E 151°45'2 6.4
2018-Jan-25 02:26S 32°55' E 151°46'1 1.0
2018-Jan-25 01:51S 32°55' E 151°46'2 0.2
2018-Jan-24 17:56S 32°53' E 151°46'0 0.2
2018-Jan-24 17:29S 32°54' E 151°46'1 1.5
2018-Jan-24 16:59S 32°54' E 151°46'1 1.5
2018-Jan-24 16:30S 32°54' E 151°46'2 3.7
2018-Jan-24 15:59S 32°55' E 151°48'1 1.7
2018-Jan-24 15:11S 32°55' E 151°46'0 0.0
2018-Jan-24 14:54S 32°55' E 151°46'1 2.0
2018-Jan-24 14:18S 32°54' E 151°46'0 0.0
2018-Jan-24 13:57S 32°54' E 151°46'1 0.4
2018-Jan-24 12:43S 32°54' E 151°46'1 2.6
2018-Jan-24 12:26S 32°53' E 151°46'0 0.3
2018-Jan-24 11:55S 32°53' E 151°46'0 0.1
2018-Jan-24 08:49S 32°54' E 151°46'0 0.3
2018-Jan-24 08:10S 32°54' E 151°46'1 4.8
2018-Jan-24 07:51S 32°55' E 151°47'0 0.8
2018-Jan-24 07:18S 32°55' E 151°47'1 1.4
2018-Jan-24 06:53S 32°55' E 151°46'0 0.0
2018-Jan-24 06:23S 32°55' E 151°46'0 0.0
2018-Jan-24 05:50S 32°55' E 151°46'0 0.0
2018-Jan-24 04:12S 32°55' E 151°46'1 7.6
2018-Jan-24 04:00S 32°55' E 151°48'1 2.1
2018-Jan-24 03:24S 32°55' E 151°46'2 1.9
2018-Jan-24 02:24S 32°53' E 151°46'0 0.3
2018-Jan-24 00:47S 32°53' E 151°46'1 2.7
2018-Jan-24 00:29S 32°54' E 151°46'2 4.7
2018-Jan-23 23:58S 32°54' E 151°49'2 4.2
2018-Jan-23 23:27S 32°55' E 151°47'2 3.5
2018-Jan-23 22:53S 32°53' E 151°46'0 0.5
2018-Jan-23 22:15S 32°53' E 151°46'0 0.0
2018-Jan-23 21:48S 32°53' E 151°46'0 0.0
2018-Jan-23 21:20S 32°53' E 151°46'0 0.0
2018-Jan-23 21:00S 32°53' E 151°46'1 0.6
2018-Jan-23 19:57S 32°54' E 151°46'2 4.2
2018-Jan-23 19:29S 32°55' E 151°49'2 1.2
2018-Jan-23 17:50S 32°55' E 151°46'0 0.8
2018-Jan-23 17:18S 32°55' E 151°46'1 4.3
2018-Jan-23 17:00S 32°54' E 151°46'0 0.4
2018-Jan-23 16:30S 32°53' E 151°46'0 0.9
2018-Jan-23 15:58S 32°54' E 151°46'0 0.0
2018-Jan-23 15:30S 32°54' E 151°46'0 0.0
2018-Jan-23 15:00S 32°54' E 151°46'0 0.0
2018-Jan-23 14:30S 32°54' E 151°46'0 0.0
2018-Jan-23 14:00S 32°54' E 151°46'0 0.0
2018-Jan-23 13:30S 32°54' E 151°46'0 0.0
2018-Jan-23 13:00S 32°54' E 151°46'0 0.0
2018-Jan-23 12:30S 32°54' E 151°46'0 0.2
2018-Jan-23 11:34S 32°54' E 151°46'0 3.8
2018-Jan-23 11:30S 32°54' E 151°46'2 4.0
2018-Jan-23 11:00S 32°55' E 151°49'2 1.2
2018-Jan-23 09:19S 32°55' E 151°46'1 1.0
2018-Jan-23 08:48S 32°55' E 151°46'2 1.7
2018-Jan-23 07:53S 32°53' E 151°46'2 5.6
2018-Jan-23 07:29S 32°55' E 151°47'0 0.2
2018-Jan-23 06:30S 32°55' E 151°46'0 0.0
2018-Jan-23 05:50S 32°55' E 151°46'0 0.1
2018-Jan-23 05:23S 32°55' E 151°46'0 1.0
2018-Jan-23 05:01S 32°55' E 151°47'2 3.8
2018-Jan-23 04:29S 32°53' E 151°46'2 4.6
2018-Jan-23 04:01S 32°55' E 151°46'0 0.4
2018-Jan-23 03:30S 32°55' E 151°46'0 0.0
2018-Jan-23 03:00S 32°55' E 151°46'0 0.0
2018-Jan-23 02:30S 32°55' E 151°46'0 0.7
2018-Jan-23 02:00S 32°55' E 151°47'1 1.6
2018-Jan-23 01:27S 32°55' E 151°46'1 2.7
2018-Jan-23 00:54S 32°53' E 151°46'0 0.7
2018-Jan-23 00:30S 32°53' E 151°45'1 0.6
2018-Jan-22 23:07S 32°53' E 151°46'0 0.3
2018-Jan-22 22:56S 32°53' E 151°46'2 3.8
2018-Jan-22 22:27S 32°55' E 151°47'1 2.6
2018-Jan-22 21:54S 32°55' E 151°48'2 3.4
2018-Jan-22 21:27S 32°55' E 151°46'1 2.2
2018-Jan-22 20:56S 32°53' E 151°46'0 0.2
2018-Jan-22 19:47S 32°53' E 151°46'2 3.2
2018-Jan-22 19:14S 32°55' E 151°47'1 5.7
2018-Jan-22 19:00S 32°55' E 151°48'2 0.3
2018-Jan-22 14:04S 32°55' E 151°46'0 0.0
2018-Jan-22 13:57S 32°55' E 151°46'0 0.6
2018-Jan-22 13:29S 32°55' E 151°47'2 1.9
2018-Jan-22 12:25S 32°53' E 151°46'1 0.3
2018-Jan-22 10:34S 32°54' E 151°46'0 2.2
2018-Jan-22 10:21S 32°54' E 151°46'0 0.2
2018-Jan-22 10:00S 32°54' E 151°46'1 1.3
2018-Jan-22 09:29S 32°54' E 151°46'2 3.8
2018-Jan-22 09:00S 32°55' E 151°48'1 0.8
2018-Jan-22 08:23S 32°55' E 151°47'0 0.3
2018-Jan-22 08:00S 32°55' E 151°47'1 1.3
2018-Jan-22 07:25S 32°55' E 151°46'1 2.0
2018-Jan-22 07:00S 32°54' E 151°46'1 2.5
2018-Jan-22 06:30S 32°55' E 151°46'0 0.3
2018-Jan-22 06:00S 32°55' E 151°46'  

Dump ship's entire track history